Time,TemperatureF,DewpointF,PressureIn,WindDirection,WindDirectionDegrees,WindSpeedMPH,WindSpeedGustMPH,Humidity,HourlyPrecipIn,Conditions,Clouds,dailyrainin,SoftwareType,DateUTC
2013-01-13 00:01:00,25.2,23.1,30.44,WNW,293,0.0,0.0,92,0.00,,,0.00,WUHU216HW,2013-01-13 08:01:00,
2013-01-13 00:07:00,25.2,23.1,30.44,WNW,293,0.0,0.0,92,0.00,,,0.00,WUHU216HW,2013-01-13 08:07:00,
2013-01-13 00:12:00,25.2,23.1,30.44,WNW,293,0.0,0.0,92,0.00,,,0.00,WUHU216HW,2013-01-13 08:12:00,
2013-01-13 00:17:00,25.3,23.2,30.44,WNW,293,0.0,0.0,92,0.00,,,0.00,WUHU216HW,2013-01-13 08:17:00,
2013-01-13 00:22:00,25.3,23.2,30.44,WNW,293,0.0,0.0,92,0.00,,,0.00,WUHU216HW,2013-01-13 08:22:00,
2013-01-13 00:27:00,25.7,23.9,30.44,WNW,293,0.0,0.0,93,0.00,,,0.00,WUHU216HW,2013-01-13 08:27:00,
2013-01-13 00:32:00,25.7,23.9,30.44,WNW,293,0.0,0.0,93,0.00,,,0.00,WUHU216HW,2013-01-13 08:32:00,
2013-01-13 00:37:00,25.7,23.9,30.44,North,0,0.0,0.0,93,0.00,,,0.00,WUHU216HW,2013-01-13 08:37:00,
2013-01-13 00:42:00,25.9,24.1,30.44,WNW,293,0.0,0.0,93,0.00,,,0.00,WUHU216HW,2013-01-13 08:42:00,
2013-01-13 00:47:00,25.9,24.1,30.44,WNW,293,0.0,0.0,93,0.00,,,0.00,WUHU216HW,2013-01-13 08:47:00,
2013-01-13 00:52:00,25.9,24.1,30.44,WNW,293,0.0,0.0,93,0.00,,,0.00,WUHU216HW,2013-01-13 08:52:00,
2013-01-13 00:57:00,25.9,24.1,30.44,WNW,293,0.0,0.0,93,0.00,,,0.00,WUHU216HW,2013-01-13 08:57:00,
2013-01-13 01:03:00,26.1,24.3,30.44,WNW,293,0.0,0.0,93,0.00,,,0.00,WUHU216HW,2013-01-13 09:03:00,
2013-01-13 01:08:00,26.1,24.3,30.44,WNW,293,0.0,0.0,93,0.00,,,0.00,WUHU216HW,2013-01-13 09:08:00,
2013-01-13 01:13:00,26.2,24.4,30.44,WNW,293,0.0,0.0,93,0.00,,,0.00,WUHU216HW,2013-01-13 09:13:00,
2013-01-13 01:18:00,26.2,24.4,30.44,WNW,293,0.0,0.0,93,0.00,,,0.00,WUHU216HW,2013-01-13 09:18:00,
2013-01-13 01:23:00,26.2,24.4,30.44,WNW,293,0.0,0.0,93,0.00,,,0.00,WUHU216HW,2013-01-13 09:23:00,
2013-01-13 01:28:00,26.4,24.6,30.44,WNW,293,0.0,0.0,93,0.00,,,0.00,WUHU216HW,2013-01-13 09:28:00,
2013-01-13 01:33:00,26.6,24.8,30.44,WNW,293,0.0,0.0,93,0.00,,,0.00,WUHU216HW,2013-01-13 09:33:00,
2013-01-13 01:38:00,26.6,24.8,30.44,WNW,293,0.0,0.0,93,0.00,,,0.00,WUHU216HW,2013-01-13 09:38:00,
2013-01-13 01:43:00,26.6,24.8,30.44,WNW,293,0.0,0.0,93,0.00,,,0.00,WUHU216HW,2013-01-13 09:43:00,
2013-01-13 01:48:00,26.6,24.8,30.44,WNW,293,0.0,0.0,93,0.00,,,0.00,WUHU216HW,2013-01-13 09:48:00,
2013-01-13 01:53:00,26.4,24.6,30.44,WNW,293,0.0,0.0,93,0.00,,,0.00,WUHU216HW,2013-01-13 09:53:00,
2013-01-13 01:59:00,26.2,24.4,30.44,WNW,293,0.0,0.0,93,0.00,,,0.00,WUHU216HW,2013-01-13 09:59:00,
2013-01-13 02:04:00,25.9,24.1,30.44,WNW,293,0.0,0.0,93,0.00,,,0.00,WUHU216HW,2013-01-13 10:04:00,
2013-01-13 02:09:00,25.7,23.6,30.44,WNW,293,0.0,0.0,92,0.00,,,0.00,WUHU216HW,2013-01-13 10:09:00,
2013-01-13 02:14:00,25.5,23.4,30.45,WNW,293,0.0,0.0,92,0.00,,,0.00,WUHU216HW,2013-01-13 10:14:00,
2013-01-13 02:19:00,25.3,23.5,30.45,WNW,293,0.0,0.0,93,0.00,,,0.00,WUHU216HW,2013-01-13 10:19:00,
2013-01-13 02:24:00,25.2,23.4,30.45,WNW,293,0.0,0.0,93,0.00,,,0.00,WUHU216HW,2013-01-13 10:24:00,
2013-01-13 02:29:00,25.0,23.2,30.44,WNW,293,0.0,0.0,93,0.00,,,0.00,WUHU216HW,2013-01-13 10:29:00,
2013-01-13 02:34:00,24.8,23.0,30.45,WNW,293,0.0,0.0,93,0.00,,,0.00,WUHU216HW,2013-01-13 10:34:00,
2013-01-13 02:39:00,24.6,22.8,30.44,WNW,293,0.0,0.0,93,0.00,,,0.00,WUHU216HW,2013-01-13 10:39:00,
2013-01-13 02:44:00,24.4,22.6,30.45,WNW,293,0.0,0.0,93,0.00,,,0.00,WUHU216HW,2013-01-13 10:44:00,
2013-01-13 02:50:00,24.1,22.3,30.45,WNW,293,0.0,0.0,93,0.00,,,0.00,WUHU216HW,2013-01-13 10:50:00,
2013-01-13 02:55:00,24.1,22.3,30.45,WNW,293,0.0,0.0,93,0.00,,,0.00,WUHU216HW,2013-01-13 10:55:00,
2013-01-13 03:00:00,24.1,22.3,30.45,WNW,293,0.0,0.0,93,0.00,,,0.00,WUHU216HW,2013-01-13 11:00:00,
2013-01-13 03:05:00,24.1,22.3,30.45,WNW,293,0.0,0.0,93,0.00,,,0.00,WUHU216HW,2013-01-13 11:05:00,
2013-01-13 03:10:00,24.1,22.3,30.45,WNW,293,0.0,0.0,93,0.00,,,0.00,WUHU216HW,2013-01-13 11:10:00,
2013-01-13 03:15:00,23.9,22.1,30.45,WNW,293,0.0,0.0,93,0.00,,,0.00,WUHU216HW,2013-01-13 11:15:00,
2013-01-13 03:20:00,23.9,22.1,30.45,WNW,293,0.0,0.0,93,0.00,,,0.00,WUHU216HW,2013-01-13 11:20:00,
2013-01-13 03:25:00,23.9,22.1,30.46,WNW,293,0.0,0.0,93,0.00,,,0.00,WUHU216HW,2013-01-13 11:25:00,
2013-01-13 03:30:00,23.9,22.1,30.45,WNW,293,0.0,0.0,93,0.00,,,0.00,WUHU216HW,2013-01-13 11:30:00,
2013-01-13 03:36:00,23.7,22.2,30.44,WNW,293,0.0,0.0,94,0.00,,,0.00,WUHU216HW,2013-01-13 11:36:00,
2013-01-13 03:41:00,23.5,22.0,30.44,WNW,293,0.0,0.0,94,0.00,,,0.00,WUHU216HW,2013-01-13 11:41:00,
2013-01-13 03:46:00,23.5,22.0,30.44,WNW,293,0.0,0.0,94,0.00,,,0.00,WUHU216HW,2013-01-13 11:46:00,
2013-01-13 03:51:00,23.5,22.0,30.44,WNW,293,0.0,0.0,94,0.00,,,0.00,WUHU216HW,2013-01-13 11:51:00,
2013-01-13 03:56:00,23.5,22.0,30.44,WNW,293,0.0,0.0,94,0.00,,,0.00,WUHU216HW,2013-01-13 11:56:00,
2013-01-13 04:01:00,23.5,22.0,30.44,WNW,293,0.0,0.0,94,0.00,,,0.00,WUHU216HW,2013-01-13 12:01:00,
2013-01-13 04:06:00,23.9,22.4,30.45,WNW,293,0.0,0.0,94,0.00,,,0.00,WUHU216HW,2013-01-13 12:06:00,
2013-01-13 04:11:00,23.9,22.4,30.44,WNW,293,0.0,0.0,94,0.00,,,0.00,WUHU216HW,2013-01-13 12:11:00,
2013-01-13 04:16:00,23.9,22.4,30.44,WNW,293,0.0,0.0,94,0.00,,,0.00,WUHU216HW,2013-01-13 12:16:00,
2013-01-13 04:21:00,24.1,22.6,30.44,WNW,293,0.0,0.0,94,0.00,,,0.00,WUHU216HW,2013-01-13 12:21:00,
2013-01-13 04:26:00,24.1,22.6,30.44,WNW,293,0.0,0.0,94,0.00,,,0.00,WUHU216HW,2013-01-13 12:26:00,
2013-01-13 04:31:00,23.9,22.4,30.44,WNW,293,0.0,0.0,94,0.00,,,0.00,WUHU216HW,2013-01-13 12:31:00,
2013-01-13 04:37:00,24.1,22.6,30.44,WNW,293,0.0,0.0,94,0.00,,,0.00,WUHU216HW,2013-01-13 12:37:00,
2013-01-13 04:42:00,24.1,22.6,30.44,WNW,293,0.0,0.0,94,0.00,,,0.00,WUHU216HW,2013-01-13 12:42:00,
2013-01-13 04:47:00,23.9,22.4,30.44,WNW,293,0.0,0.0,94,0.00,,,0.00,WUHU216HW,2013-01-13 12:47:00,
2013-01-13 04:52:00,23.9,22.4,30.44,WNW,293,0.0,0.0,94,0.00,,,0.00,WUHU216HW,2013-01-13 12:52:00,
2013-01-13 04:57:00,23.9,22.6,30.44,WNW,293,0.0,0.0,95,0.00,,,0.00,WUHU216HW,2013-01-13 12:57:00,
2013-01-13 05:02:00,23.9,22.6,30.44,WNW,293,0.0,0.0,95,0.00,,,0.00,WUHU216HW,2013-01-13 13:02:00,
2013-01-13 05:07:00,23.7,22.5,30.44,WNW,293,0.0,0.0,95,0.00,,,0.00,WUHU216HW,2013-01-13 13:07:00,
2013-01-13 05:12:00,23.7,22.5,30.44,WNW,293,0.0,0.0,95,0.00,,,0.00,WUHU216HW,2013-01-13 13:12:00,
2013-01-13 05:17:00,23.5,22.3,30.44,WNW,293,0.0,0.0,95,0.00,,,0.00,WUHU216HW,2013-01-13 13:17:00,
2013-01-13 05:22:00,23.7,22.5,30.45,WNW,293,0.0,0.0,95,0.00,,,0.00,WUHU216HW,2013-01-13 13:22:00,
2013-01-13 05:27:00,23.5,22.3,30.44,WNW,293,0.0,0.0,95,0.00,,,0.00,WUHU216HW,2013-01-13 13:27:00,
2013-01-13 05:32:00,23.5,22.3,30.45,WNW,293,0.0,0.0,95,0.00,,,0.00,WUHU216HW,2013-01-13 13:32:00,
2013-01-13 05:37:00,23.5,22.3,30.45,WNW,293,0.0,0.0,95,0.00,,,0.00,WUHU216HW,2013-01-13 13:37:00,
2013-01-13 05:42:00,23.5,22.3,30.45,WNW,293,0.0,0.0,95,0.00,,,0.00,WUHU216HW,2013-01-13 13:42:00,
2013-01-13 05:47:00,23.7,22.5,30.44,WNW,293,0.0,0.0,95,0.00,,,0.00,WUHU216HW,2013-01-13 13:47:00,
2013-01-13 05:53:00,23.9,22.6,30.44,WNW,293,0.0,0.0,95,0.00,,,0.00,WUHU216HW,2013-01-13 13:53:00,
2013-01-13 05:58:00,23.9,22.6,30.44,WNW,293,0.0,0.0,95,0.00,,,0.00,WUHU216HW,2013-01-13 13:58:00,
2013-01-13 06:03:00,23.7,22.5,30.45,WNW,293,0.0,0.0,95,0.00,,,0.00,WUHU216HW,2013-01-13 14:03:00,
2013-01-13 06:08:00,23.5,22.3,30.45,WNW,293,0.0,0.0,95,0.00,,,0.00,WUHU216HW,2013-01-13 14:08:00,
2013-01-13 06:13:00,23.4,22.2,30.45,WNW,293,0.0,0.0,95,0.00,,,0.00,WUHU216HW,2013-01-13 14:13:00,
2013-01-13 06:18:00,23.5,22.3,30.46,WNW,293,0.0,0.0,95,0.00,,,0.00,WUHU216HW,2013-01-13 14:18:00,
2013-01-13 06:23:00,23.5,22.3,30.46,WNW,293,0.0,0.0,95,0.00,,,0.00,WUHU216HW,2013-01-13 14:23:00,
2013-01-13 06:28:00,23.4,22.2,30.45,WNW,293,0.0,0.0,95,0.00,,,0.00,WUHU216HW,2013-01-13 14:28:00,
2013-01-13 06:33:00,23.4,22.2,30.46,WNW,293,0.0,0.0,95,0.00,,,0.00,WUHU216HW,2013-01-13 14:33:00,
2013-01-13 06:38:00,23.4,22.2,30.45,WNW,293,0.0,0.0,95,0.00,,,0.00,WUHU216HW,2013-01-13 14:38:00,
2013-01-13 06:44:00,23.4,22.2,30.46,WNW,293,0.0,0.0,95,0.00,,,0.00,WUHU216HW,2013-01-13 14:44:00,
2013-01-13 06:49:00,23.0,21.8,30.46,WNW,293,0.0,0.0,95,0.00,,,0.00,WUHU216HW,2013-01-13 14:49:00,
2013-01-13 06:54:00,23.2,22.0,30.46,WNW,293,0.0,0.0,95,0.00,,,0.00,WUHU216HW,2013-01-13 14:54:00,
2013-01-13 06:59:00,23.4,22.2,30.46,WNW,293,0.0,0.0,95,0.00,,,0.00,WUHU216HW,2013-01-13 14:59:00,
2013-01-13 07:04:00,23.5,22.3,30.46,WNW,293,0.0,0.0,95,0.00,,,0.00,WUHU216HW,2013-01-13 15:04:00,
2013-01-13 07:09:00,23.4,22.2,30.46,WNW,293,0.0,0.0,95,0.00,,,0.00,WUHU216HW,2013-01-13 15:09:00,
2013-01-13 07:14:00,23.5,22.3,30.46,WNW,293,0.0,0.0,95,0.00,,,0.00,WUHU216HW,2013-01-13 15:14:00,
2013-01-13 07:19:00,23.5,22.3,30.47,WNW,293,0.0,0.0,95,0.00,,,0.00,WUHU216HW,2013-01-13 15:19:00,
2013-01-13 07:24:00,23.4,22.2,30.47,WNW,293,0.0,0.0,95,0.00,,,0.00,WUHU216HW,2013-01-13 15:24:00,
2013-01-13 07:29:00,23.5,22.3,30.47,WNW,293,0.0,0.0,95,0.00,,,0.00,WUHU216HW,2013-01-13 15:29:00,
2013-01-13 07:34:00,23.7,22.5,30.47,North,0,0.0,0.0,95,0.00,,,0.00,WUHU216HW,2013-01-13 15:34:00,
2013-01-13 07:39:00,23.9,22.6,30.48,WNW,293,0.0,0.0,95,0.00,,,0.00,WUHU216HW,2013-01-13 15:39:00,
2013-01-13 07:44:00,23.9,22.6,30.48,WNW,293,0.0,0.0,95,0.00,,,0.00,WUHU216HW,2013-01-13 15:44:00,
2013-01-13 07:49:00,24.1,23.1,30.48,WNW,293,0.0,0.0,96,0.00,,,0.00,WUHU216HW,2013-01-13 15:49:00,
2013-01-13 07:54:00,24.3,23.3,30.48,WNW,293,0.0,0.0,96,0.00,,,0.00,WUHU216HW,2013-01-13 15:54:00,
2013-01-13 07:59:00,24.3,23.3,30.48,WNW,293,0.0,0.0,96,0.00,,,0.00,WUHU216HW,2013-01-13 15:59:00,
2013-01-13 08:04:00,24.3,23.3,30.48,WNW,293,0.0,0.0,96,0.00,,,0.00,WUHU216HW,2013-01-13 16:04:00,
2013-01-13 08:10:00,24.4,23.4,30.48,WNW,293,0.0,0.0,96,0.00,,,0.00,WUHU216HW,2013-01-13 16:10:00,
2013-01-13 08:15:00,24.4,23.4,30.47,WNW,293,0.0,0.0,96,0.00,,,0.00,WUHU216HW,2013-01-13 16:15:00,
2013-01-13 08:20:00,24.4,23.4,30.48,WNW,293,0.0,0.0,96,0.00,,,0.00,WUHU216HW,2013-01-13 16:20:00,
2013-01-13 08:25:00,24.4,23.4,30.48,WNW,293,0.0,0.0,96,0.00,,,0.00,WUHU216HW,2013-01-13 16:25:00,
2013-01-13 08:30:00,24.6,23.6,30.48,WNW,293,0.0,0.0,96,0.00,,,0.00,WUHU216HW,2013-01-13 16:30:00,
2013-01-13 08:35:00,24.6,23.6,30.47,WNW,293,0.0,0.0,96,0.00,,,0.00,WUHU216HW,2013-01-13 16:35:00,
2013-01-13 08:40:00,24.8,23.8,30.48,WNW,293,0.0,0.0,96,0.00,,,0.00,WUHU216HW,2013-01-13 16:40:00,
2013-01-13 08:46:00,25.3,24.3,30.48,WNW,293,0.0,0.0,96,0.00,,,0.00,WUHU216HW,2013-01-13 16:46:00,
2013-01-13 08:51:00,25.2,24.2,30.48,WNW,293,0.0,0.0,96,0.00,,,0.00,WUHU216HW,2013-01-13 16:51:00,
2013-01-13 08:56:00,25.6,24.6,30.48,WNW,293,0.0,0.0,96,0.00,,,0.00,WUHU216HW,2013-01-13 16:56:00,
2013-01-13 09:01:00,25.8,24.8,30.48,WNW,293,0.0,0.0,96,0.00,,,0.00,WUHU216HW,2013-01-13 17:01:00,
2013-01-13 09:06:00,25.8,24.7,30.48,WNW,293,0.0,0.0,96,0.00,,,0.00,WUHU216HW,2013-01-13 17:06:00,
2013-01-13 09:11:00,25.7,24.7,30.47,WNW,293,0.0,0.0,96,0.00,,,0.00,WUHU216HW,2013-01-13 17:11:00,
2013-01-13 09:16:00,25.9,24.9,30.48,WNW,293,0.0,0.0,96,0.00,,,0.00,WUHU216HW,2013-01-13 17:16:00,
2013-01-13 09:21:00,26.2,25.1,30.48,WNW,293,0.0,0.0,96,0.00,,,0.00,WUHU216HW,2013-01-13 17:21:00,
2013-01-13 09:27:00,26.3,25.3,30.48,WNW,293,0.0,0.0,96,0.00,,,0.00,WUHU216HW,2013-01-13 17:27:00,
2013-01-13 09:32:00,26.7,25.7,30.48,WNW,293,0.0,0.0,96,0.00,,,0.00,WUHU216HW,2013-01-13 17:32:00,
2013-01-13 09:37:00,26.5,25.5,30.48,WNW,293,0.0,0.0,96,0.00,,,0.00,WUHU216HW,2013-01-13 17:37:00,
2013-01-13 09:42:00,26.7,26.0,30.48,WNW,293,0.0,0.0,97,0.00,,,0.00,WUHU216HW,2013-01-13 17:42:00,
2013-01-13 09:47:00,27.1,26.1,30.49,WNW,293,0.0,0.0,96,0.00,,,0.00,WUHU216HW,2013-01-13 17:47:00,
2013-01-13 09:52:00,27.6,26.8,30.49,WNW,293,0.0,0.0,97,0.00,,,0.00,WUHU216HW,2013-01-13 17:52:00,
2013-01-13 09:57:00,27.9,26.9,30.49,WNW,293,0.0,0.0,96,0.00,,,0.00,WUHU216HW,2013-01-13 17:57:00,
2013-01-13 10:02:00,28.1,27.3,30.48,WNW,293,0.0,0.0,97,0.00,,,0.00,WUHU216HW,2013-01-13 18:02:00,
2013-01-13 10:07:00,28.1,27.1,30.48,WNW,293,0.0,0.0,96,0.00,,,0.00,WUHU216HW,2013-01-13 18:07:00,
2013-01-13 10:12:00,28.6,27.5,30.49,WNW,293,0.0,0.0,96,0.00,,,0.00,WUHU216HW,2013-01-13 18:12:00,
2013-01-13 10:17:00,28.7,27.7,30.49,WNW,293,0.0,0.0,96,0.00,,,0.00,WUHU216HW,2013-01-13 18:17:00,
2013-01-13 10:22:00,28.9,27.9,30.49,WNW,293,0.0,0.0,96,0.00,,,0.00,WUHU216HW,2013-01-13 18:22:00,
2013-01-13 10:27:00,28.9,27.8,30.50,WNW,293,0.0,0.0,96,0.00,,,0.00,WUHU216HW,2013-01-13 18:27:00,
2013-01-13 10:32:00,29.2,28.1,30.49,WNW,293,0.0,0.0,96,0.00,,,0.00,WUHU216HW,2013-01-13 18:32:00,
2013-01-13 10:37:00,29.1,28.1,30.49,WNW,293,0.0,0.0,96,0.00,,,0.00,WUHU216HW,2013-01-13 18:37:00,
2013-01-13 10:43:00,29.5,28.7,30.49,WNW,293,0.0,0.0,97,0.00,,,0.00,WUHU216HW,2013-01-13 18:43:00,
2013-01-13 10:48:00,29.5,28.4,30.49,WNW,293,0.0,0.0,96,0.00,,,0.00,WUHU216HW,2013-01-13 18:48:00,
2013-01-13 10:53:00,29.9,28.8,30.49,WNW,293,0.0,0.0,96,0.00,,,0.00,WUHU216HW,2013-01-13 18:53:00,
2013-01-13 10:58:00,29.9,28.9,30.49,WNW,293,0.0,0.0,96,0.00,,,0.00,WUHU216HW,2013-01-13 18:58:00,
2013-01-13 11:03:00,30.3,29.0,30.49,WNW,293,0.0,0.0,95,0.00,,,0.00,WUHU216HW,2013-01-13 19:03:00,
2013-01-13 11:08:00,30.5,29.2,30.49,WNW,293,0.0,0.0,95,0.00,,,0.00,WUHU216HW,2013-01-13 19:08:00,
2013-01-13 11:13:00,30.7,29.1,30.48,South,180,0.0,0.0,94,0.00,,,0.00,WUHU216HW,2013-01-13 19:13:00,
2013-01-13 11:18:00,30.9,29.4,30.48,South,180,0.0,0.0,94,0.00,,,0.00,WUHU216HW,2013-01-13 19:18:00,
2013-01-13 11:23:00,30.7,28.9,30.47,SSE,158,0.0,0.0,93,0.00,,,0.00,WUHU216HW,2013-01-13 19:23:00,
2013-01-13 11:28:00,31.1,29.0,30.47,South,180,0.0,2.6,92,0.00,,,0.00,WUHU216HW,2013-01-13 19:28:00,
2013-01-13 11:33:00,31.3,28.9,30.47,SSE,158,0.0,2.6,91,0.00,,,0.00,WUHU216HW,2013-01-13 19:33:00,
2013-01-13 11:39:00,31.7,29.1,30.47,South,180,0.0,0.0,90,0.00,,,0.00,WUHU216HW,2013-01-13 19:39:00,
2013-01-13 11:44:00,32.1,29.2,30.47,South,180,0.0,0.0,89,0.00,,,0.00,WUHU216HW,2013-01-13 19:44:00,
2013-01-13 11:49:00,32.3,29.1,30.47,South,180,0.0,0.0,88,0.00,,,0.00,WUHU216HW,2013-01-13 19:49:00,
2013-01-13 11:54:00,32.3,29.1,30.46,South,180,0.0,0.0,88,0.00,,,0.00,WUHU216HW,2013-01-13 19:54:00,
2013-01-13 11:59:00,32.8,29.6,30.47,South,180,0.0,0.0,88,0.00,,,0.00,WUHU216HW,2013-01-13 19:59:00,
2013-01-13 12:04:00,32.7,29.3,30.46,South,180,0.0,0.0,87,0.00,,,0.00,WUHU216HW,2013-01-13 20:04:00,
2013-01-13 12:09:00,33.1,29.6,30.47,South,180,0.0,0.0,87,0.00,,,0.00,WUHU216HW,2013-01-13 20:09:00,
2013-01-13 12:14:00,33.6,29.8,30.46,South,180,0.0,0.0,86,0.00,,,0.00,WUHU216HW,2013-01-13 20:14:00,
2013-01-13 12:20:00,33.6,29.8,30.47,South,180,0.0,0.0,86,0.00,,,0.00,WUHU216HW,2013-01-13 20:20:00,
2013-01-13 12:25:00,33.6,29.5,30.46,South,180,0.0,0.0,85,0.00,,,0.00,WUHU216HW,2013-01-13 20:25:00,
2013-01-13 12:30:00,33.8,29.4,30.46,SSE,158,0.0,0.0,84,0.00,,,0.00,WUHU216HW,2013-01-13 20:30:00,
2013-01-13 12:35:00,34.0,29.4,30.46,SSE,158,0.0,0.0,83,0.00,,,0.00,WUHU216HW,2013-01-13 20:35:00,
2013-01-13 12:40:00,34.4,29.8,30.46,SSE,158,0.0,0.0,83,0.00,,,0.00,WUHU216HW,2013-01-13 20:40:00,
2013-01-13 12:45:00,34.4,29.8,30.45,South,180,0.0,0.0,83,0.00,,,0.00,WUHU216HW,2013-01-13 20:45:00,
2013-01-13 12:50:00,34.4,29.8,30.45,South,180,0.0,0.0,83,0.00,,,0.00,WUHU216HW,2013-01-13 20:50:00,
2013-01-13 12:55:00,34.6,30.0,30.45,South,180,0.0,0.0,83,0.00,,,0.00,WUHU216HW,2013-01-13 20:55:00,
2013-01-13 13:00:00,34.6,29.7,30.45,SSE,158,0.0,0.0,82,0.00,,,0.00,WUHU216HW,2013-01-13 21:00:00,
2013-01-13 13:05:00,34.4,29.2,30.45,SSE,158,0.0,3.8,81,0.00,,,0.00,WUHU216HW,2013-01-13 21:05:00,
2013-01-13 13:10:00,34.4,28.9,30.45,SSE,158,0.0,3.8,80,0.00,,,0.00,WUHU216HW,2013-01-13 21:10:00,
2013-01-13 13:15:00,34.4,28.9,30.46,SSE,158,0.0,0.0,80,0.00,,,0.00,WUHU216HW,2013-01-13 21:15:00,
2013-01-13 13:20:00,34.6,29.1,30.45,WSW,248,0.0,0.0,80,0.00,,,0.00,WUHU216HW,2013-01-13 21:20:00,
2013-01-13 13:25:00,34.9,29.3,30.46,WSW,248,0.0,0.0,80,0.00,,,0.00,WUHU216HW,2013-01-13 21:25:00,
2013-01-13 13:30:00,34.8,29.2,30.45,WSW,248,0.0,0.0,80,0.00,,,0.00,WUHU216HW,2013-01-13 21:30:00,
2013-01-13 13:35:00,34.6,28.7,30.45,South,180,0.0,0.0,79,0.00,,,0.00,WUHU216HW,2013-01-13 21:35:00,
2013-01-13 13:41:00,34.4,28.6,30.45,South,180,0.0,0.0,79,0.00,,,0.00,WUHU216HW,2013-01-13 21:41:00,
2013-01-13 13:46:00,34.4,28.6,30.45,South,180,0.0,0.0,79,0.00,,,0.00,WUHU216HW,2013-01-13 21:46:00,
2013-01-13 13:51:00,34.8,28.9,30.46,South,180,0.0,0.0,79,0.00,,,0.00,WUHU216HW,2013-01-13 21:51:00,
2013-01-13 13:56:00,34.9,29.0,30.45,South,180,0.0,0.0,79,0.00,,,0.00,WUHU216HW,2013-01-13 21:56:00,
2013-01-13 14:01:00,35.1,29.2,30.46,SW,225,0.0,0.0,79,0.00,,,0.00,WUHU216HW,2013-01-13 22:01:00,
2013-01-13 14:06:00,35.3,29.4,30.46,SW,225,0.0,0.0,79,0.00,,,0.00,WUHU216HW,2013-01-13 22:06:00,
2013-01-13 14:11:00,34.9,28.7,30.46,SW,225,0.0,0.0,78,0.00,,,0.00,WUHU216HW,2013-01-13 22:11:00,
2013-01-13 14:16:00,34.9,28.7,30.46,SW,225,0.0,0.0,78,0.00,,,0.00,WUHU216HW,2013-01-13 22:16:00,
2013-01-13 14:21:00,34.9,28.7,30.46,SW,225,0.0,0.0,78,0.00,,,0.00,WUHU216HW,2013-01-13 22:21:00,
2013-01-13 14:26:00,34.9,28.8,30.46,SSE,158,0.0,0.0,78,0.00,,,0.00,WUHU216HW,2013-01-13 22:26:00,
2013-01-13 14:31:00,34.4,28.3,30.46,SSE,158,0.0,4.6,78,0.00,,,0.00,WUHU216HW,2013-01-13 22:31:00,
2013-01-13 14:36:00,34.0,27.6,30.46,South,180,0.0,4.6,77,0.00,,,0.00,WUHU216HW,2013-01-13 22:36:00,
2013-01-13 14:41:00,34.4,28.3,30.46,South,180,0.0,4.6,78,0.00,,,0.00,WUHU216HW,2013-01-13 22:41:00,
2013-01-13 14:46:00,34.6,28.5,30.46,SW,225,0.0,4.6,78,0.00,,,0.00,WUHU216HW,2013-01-13 22:46:00,
2013-01-13 14:51:00,34.6,28.5,30.46,SSW,203,0.0,0.0,78,0.00,,,0.00,WUHU216HW,2013-01-13 22:51:00,
2013-01-13 14:56:00,34.6,28.2,30.45,SSW,203,0.0,0.0,77,0.00,,,0.00,WUHU216HW,2013-01-13 22:56:00,
2013-01-13 15:02:00,34.7,28.5,30.46,SSW,203,0.0,0.0,78,0.00,,,0.00,WUHU216HW,2013-01-13 23:02:00,
2013-01-13 15:07:00,34.9,28.7,30.46,SSW,203,0.0,0.0,78,0.00,,,0.00,WUHU216HW,2013-01-13 23:07:00,
2013-01-13 15:12:00,34.1,27.7,30.46,SSE,158,0.0,0.0,77,0.00,,,0.00,WUHU216HW,2013-01-13 23:12:00,
2013-01-13 15:17:00,34.1,28.0,30.46,SSE,158,0.0,0.0,78,0.00,,,0.00,WUHU216HW,2013-01-13 23:17:00,
2013-01-13 15:22:00,33.6,27.5,30.46,SSE,158,0.0,0.0,78,0.00,,,0.00,WUHU216HW,2013-01-13 23:22:00,
2013-01-13 15:27:00,33.2,27.2,30.46,SSE,158,0.0,0.0,78,0.00,,,0.00,WUHU216HW,2013-01-13 23:27:00,
2013-01-13 15:32:00,33.2,27.4,30.46,SSE,158,0.0,0.0,79,0.00,,,0.00,WUHU216HW,2013-01-13 23:32:00,
2013-01-13 15:37:00,33.2,27.4,30.46,SSE,158,0.0,0.0,79,0.00,,,0.00,WUHU216HW,2013-01-13 23:37:00,
2013-01-13 15:42:00,33.2,27.4,30.46,SSE,158,0.0,0.0,79,0.00,,,0.00,WUHU216HW,2013-01-13 23:42:00,
2013-01-13 15:47:00,33.0,27.5,30.46,SSE,158,0.0,0.0,80,0.00,,,0.00,WUHU216HW,2013-01-13 23:47:00,
2013-01-13 15:52:00,33.0,27.8,30.46,SSE,158,0.0,0.0,81,0.00,,,0.00,WUHU216HW,2013-01-13 23:52:00,
2013-01-13 15:57:00,32.9,27.7,30.46,SSE,158,0.0,0.0,81,0.00,,,0.00,WUHU216HW,2013-01-13 23:57:00,
2013-01-13 16:02:00,32.9,27.7,30.46,SSE,158,0.0,0.0,81,0.00,,,0.00,WUHU216HW,2013-01-14 00:02:00,
2013-01-13 16:07:00,32.5,27.6,30.46,SSE,158,0.0,0.0,82,0.00,,,0.00,WUHU216HW,2013-01-14 00:07:00,
2013-01-13 16:12:00,32.4,27.5,30.47,SSE,158,0.0,0.0,82,0.00,,,0.00,WUHU216HW,2013-01-14 00:12:00,
2013-01-13 16:18:00,32.0,27.2,30.47,SSE,158,0.0,0.0,82,0.00,,,0.00,WUHU216HW,2013-01-14 00:18:00,
2013-01-13 16:23:00,31.7,27.1,30.47,SSE,158,0.0,0.0,83,0.00,,,0.00,WUHU216HW,2013-01-14 00:23:00,
2013-01-13 16:28:00,31.4,26.8,30.46,SSE,158,0.0,0.0,83,0.00,,,0.00,WUHU216HW,2013-01-14 00:28:00,
2013-01-13 16:33:00,31.2,26.9,30.46,SSE,158,0.0,0.0,84,0.00,,,0.00,WUHU216HW,2013-01-14 00:33:00,
2013-01-13 16:38:00,30.8,26.6,30.46,SSE,158,0.0,0.0,84,0.00,,,0.00,WUHU216HW,2013-01-14 00:38:00,
2013-01-13 16:43:00,30.9,26.6,30.46,SSE,158,0.0,0.0,84,0.00,,,0.00,WUHU216HW,2013-01-14 00:43:00,
2013-01-13 16:48:00,30.4,26.4,30.46,SSE,158,0.0,0.0,85,0.00,,,0.00,WUHU216HW,2013-01-14 00:48:00,
2013-01-13 16:53:00,30.0,26.0,30.46,SSE,158,0.0,0.0,85,0.00,,,0.00,WUHU216HW,2013-01-14 00:53:00,
2013-01-13 16:58:00,30.0,26.0,30.47,SSE,158,0.0,0.0,85,0.00,,,0.00,WUHU216HW,2013-01-14 00:58:00,
2013-01-13 17:03:00,29.6,25.9,30.46,SSE,158,0.0,0.0,86,0.00,,,0.00,WUHU216HW,2013-01-14 01:03:00,
2013-01-13 17:09:00,29.4,25.7,30.47,SSE,158,0.0,0.0,86,0.00,,,0.00,WUHU216HW,2013-01-14 01:09:00,
2013-01-13 17:14:00,29.1,25.7,30.47,SSE,158,0.0,0.0,87,0.00,,,0.00,WUHU216HW,2013-01-14 01:14:00,
2013-01-13 17:19:00,29.0,25.6,30.47,SSE,158,0.0,0.0,87,0.00,,,0.00,WUHU216HW,2013-01-14 01:19:00,
2013-01-13 17:24:00,28.8,25.4,30.47,SSE,158,0.0,0.0,87,0.00,,,0.00,WUHU216HW,2013-01-14 01:24:00,
2013-01-13 17:29:00,28.6,25.2,30.47,SSE,158,0.0,0.0,87,0.00,,,0.00,WUHU216HW,2013-01-14 01:29:00,
2013-01-13 17:34:00,28.5,25.0,30.46,SSE,158,0.0,0.0,87,0.00,,,0.00,WUHU216HW,2013-01-14 01:34:00,
2013-01-13 17:39:00,28.2,25.1,30.47,SSE,158,0.0,0.0,88,0.00,,,0.00,WUHU216HW,2013-01-14 01:39:00,
2013-01-13 17:44:00,28.2,25.1,30.48,SSE,158,0.0,0.0,88,0.00,,,0.00,WUHU216HW,2013-01-14 01:44:00,
2013-01-13 17:49:00,28.4,25.6,30.48,SSE,158,0.0,0.0,89,0.00,,,0.00,WUHU216HW,2013-01-14 01:49:00,
2013-01-13 17:55:00,28.3,25.4,30.48,SSE,158,0.0,0.0,89,0.00,,,0.00,WUHU216HW,2013-01-14 01:55:00,
2013-01-13 18:00:00,28.1,25.2,30.48,SSE,158,0.0,0.0,89,0.00,,,0.00,WUHU216HW,2013-01-14 02:00:00,
2013-01-13 18:05:00,27.9,25.1,30.49,SSE,158,0.0,0.0,89,0.00,,,0.00,WUHU216HW,2013-01-14 02:05:00,
2013-01-13 18:10:00,27.8,25.2,30.48,SSE,158,0.0,0.0,90,0.00,,,0.00,WUHU216HW,2013-01-14 02:10:00,
2013-01-13 18:15:00,27.5,24.9,30.48,SSE,158,0.0,0.0,90,0.00,,,0.00,WUHU216HW,2013-01-14 02:15:00,
2013-01-13 18:20:00,27.8,25.5,30.47,SSE,158,0.0,0.0,91,0.00,,,0.00,WUHU216HW,2013-01-14 02:20:00,
2013-01-13 18:25:00,28.0,25.7,30.46,SSE,158,0.0,0.0,91,0.00,,,0.00,WUHU216HW,2013-01-14 02:25:00,
2013-01-13 18:30:00,28.1,25.7,30.46,SSE,158,0.0,0.0,91,0.00,,,0.00,WUHU216HW,2013-01-14 02:30:00,
2013-01-13 18:35:00,28.3,25.9,30.46,SSE,158,0.0,0.0,91,0.00,,,0.00,WUHU216HW,2013-01-14 02:35:00,
2013-01-13 18:41:00,28.3,26.0,30.46,SSE,158,0.0,0.0,91,0.00,,,0.00,WUHU216HW,2013-01-14 02:41:00,
2013-01-13 18:46:00,28.1,25.8,30.46,SSE,158,0.0,0.0,91,0.00,,,0.00,WUHU216HW,2013-01-14 02:46:00,
2013-01-13 18:51:00,28.1,25.8,30.46,SSE,158,0.0,0.0,91,0.00,,,0.00,WUHU216HW,2013-01-14 02:51:00,
2013-01-13 18:56:00,27.9,25.6,30.45,SSE,158,0.0,0.0,91,0.00,,,0.00,WUHU216HW,2013-01-14 02:56:00,
2013-01-13 19:01:00,27.9,25.6,30.45,SSE,158,3.6,3.8,91,0.00,,,0.00,WUHU216HW,2013-01-14 03:01:00,
2013-01-13 19:06:00,27.9,25.9,30.46,SSE,158,0.0,3.8,92,0.00,,,0.00,WUHU216HW,2013-01-14 03:06:00,
2013-01-13 19:11:00,27.6,25.6,30.45,SSE,158,0.0,0.0,92,0.00,,,0.00,WUHU216HW,2013-01-14 03:11:00,
2013-01-13 19:16:00,27.6,25.6,30.46,SSE,158,0.0,0.0,92,0.00,,,0.00,WUHU216HW,2013-01-14 03:16:00,
2013-01-13 19:22:00,27.6,25.6,30.47,SSE,158,0.0,0.0,92,0.00,,,0.00,WUHU216HW,2013-01-14 03:22:00,
2013-01-13 19:27:00,27.6,25.6,30.47,SSE,158,0.0,0.0,92,0.00,,,0.00,WUHU216HW,2013-01-14 03:27:00,
2013-01-13 19:32:00,27.9,25.9,30.47,SSE,158,0.0,0.0,92,0.00,,,0.00,WUHU216HW,2013-01-14 03:32:00,
2013-01-13 19:37:00,27.9,25.9,30.48,SSE,158,0.0,0.0,92,0.00,,,0.00,WUHU216HW,2013-01-14 03:37:00,
2013-01-13 19:42:00,27.9,26.1,30.48,SSE,158,0.0,0.0,93,0.00,,,0.00,WUHU216HW,2013-01-14 03:42:00,
2013-01-13 19:47:00,27.9,26.1,30.48,SSE,158,0.0,0.0,93,0.00,,,0.00,WUHU216HW,2013-01-14 03:47:00,
2013-01-13 19:52:00,27.9,26.1,30.48,SSE,158,0.0,0.0,93,0.00,,,0.00,WUHU216HW,2013-01-14 03:52:00,
2013-01-13 19:57:00,28.1,26.3,30.48,SSE,158,0.0,0.0,93,0.00,,,0.00,WUHU216HW,2013-01-14 03:57:00,
2013-01-13 20:02:00,28.3,26.5,30.47,SSE,158,0.0,0.0,93,0.00,,,0.00,WUHU216HW,2013-01-14 04:02:00,
2013-01-13 20:08:00,28.3,26.5,30.48,SSE,158,0.0,0.0,93,0.00,,,0.00,WUHU216HW,2013-01-14 04:08:00,
2013-01-13 20:13:00,28.5,26.7,30.48,SSE,158,0.0,0.0,93,0.00,,,0.00,WUHU216HW,2013-01-14 04:13:00,
2013-01-13 20:18:00,28.5,26.7,30.47,SSE,158,0.0,0.0,93,0.00,,,0.00,WUHU216HW,2013-01-14 04:18:00,
2013-01-13 20:23:00,28.5,26.7,30.48,SSE,158,0.0,0.0,93,0.00,,,0.00,WUHU216HW,2013-01-14 04:23:00,
2013-01-13 20:28:00,28.5,26.7,30.48,SSE,158,0.0,0.0,93,0.00,,,0.00,WUHU216HW,2013-01-14 04:28:00,
2013-01-13 20:33:00,28.5,26.7,30.48,SSE,158,0.0,0.0,93,0.00,,,0.00,WUHU216HW,2013-01-14 04:33:00,
2013-01-13 20:38:00,28.5,26.7,30.48,SSE,158,0.0,0.0,93,0.00,,,0.00,WUHU216HW,2013-01-14 04:38:00,
2013-01-13 20:43:00,28.7,26.9,30.48,SSE,158,0.0,0.0,93,0.00,,,0.00,WUHU216HW,2013-01-14 04:43:00,
2013-01-13 20:48:00,28.8,27.0,30.47,SSE,158,0.0,0.0,93,0.00,,,0.00,WUHU216HW,2013-01-14 04:48:00,
2013-01-13 20:54:00,28.8,27.0,30.48,SSE,158,0.0,0.0,93,0.00,,,0.00,WUHU216HW,2013-01-14 04:54:00,
2013-01-13 20:59:00,28.8,27.0,30.48,SSE,158,0.0,0.0,93,0.00,,,0.00,WUHU216HW,2013-01-14 04:59:00,
2013-01-13 21:00:00,28.8,27.0,30.48,SSE,158,0.0,0.0,93,0.00,,,0.00,WUHU216HW,2013-01-14 05:00:00,
2013-01-13 21:01:00,28.8,27.0,30.47,SSE,158,0.0,0.0,93,0.00,,,0.00,WUHU216HW,2013-01-14 05:01:00,
2013-01-13 21:04:00,28.8,27.0,30.47,SSE,158,0.0,0.0,93,0.00,,,0.00,WUHU216HW,2013-01-14 05:04:00,
2013-01-13 21:09:00,29.0,27.2,30.47,SSE,158,0.0,0.0,93,0.00,,,0.00,WUHU216HW,2013-01-14 05:09:00,
2013-01-13 21:14:00,29.2,27.4,30.47,SSE,158,0.0,0.0,93,0.00,,,0.00,WUHU216HW,2013-01-14 05:14:00,
2013-01-13 21:20:00,29.4,27.6,30.47,SSE,158,0.0,0.0,93,0.00,,,0.00,WUHU216HW,2013-01-14 05:20:00,
2013-01-13 21:25:00,29.2,27.4,30.47,SSE,158,0.0,0.0,93,0.00,,,0.00,WUHU216HW,2013-01-14 05:25:00,
2013-01-13 21:30:00,29.4,27.6,30.47,SSE,158,0.0,0.0,93,0.00,,,0.00,WUHU216HW,2013-01-14 05:30:00,
2013-01-13 21:35:00,29.4,27.6,30.48,SSE,158,0.0,0.0,93,0.00,,,0.00,WUHU216HW,2013-01-14 05:35:00,
2013-01-13 21:40:00,29.4,27.6,30.48,SSE,158,0.0,0.0,93,0.00,,,0.00,WUHU216HW,2013-01-14 05:40:00,
2013-01-13 21:45:00,29.4,27.6,30.49,SSE,158,0.0,0.0,93,0.00,,,0.00,WUHU216HW,2013-01-14 05:45:00,
2013-01-13 21:50:00,29.4,27.6,30.49,SSE,158,0.0,0.0,93,0.00,,,0.00,WUHU216HW,2013-01-14 05:50:00,
2013-01-13 21:55:00,29.4,27.6,30.48,SSE,158,0.0,0.0,93,0.00,,,0.00,WUHU216HW,2013-01-14 05:55:00,
2013-01-13 22:00:00,29.4,27.6,30.48,SSE,158,0.0,0.0,93,0.00,,,0.00,WUHU216HW,2013-01-14 06:00:00,
2013-01-13 22:05:00,29.4,27.6,30.48,SSE,158,0.0,0.0,93,0.00,,,0.00,WUHU216HW,2013-01-14 06:05:00,
2013-01-13 22:10:00,29.4,27.6,30.48,SSE,158,0.0,0.0,93,0.00,,,0.00,WUHU216HW,2013-01-14 06:10:00,
2013-01-13 22:15:00,29.4,27.6,30.48,SSE,158,0.0,0.0,93,0.00,,,0.00,WUHU216HW,2013-01-14 06:15:00,
2013-01-13 22:20:00,29.6,27.8,30.48,SSE,158,0.0,0.0,93,0.00,,,0.00,WUHU216HW,2013-01-14 06:20:00,
2013-01-13 22:25:00,29.6,27.8,30.48,SSE,158,0.0,0.0,93,0.00,,,0.00,WUHU216HW,2013-01-14 06:25:00,
2013-01-13 22:31:00,29.7,27.9,30.49,SSE,158,0.0,0.0,93,0.00,,,0.00,WUHU216HW,2013-01-14 06:31:00,
2013-01-13 22:36:00,29.7,27.9,30.49,SSE,158,0.0,0.0,93,0.00,,,0.00,WUHU216HW,2013-01-14 06:36:00,
2013-01-13 22:41:00,29.9,28.1,30.49,SSE,158,0.0,0.0,93,0.00,,,0.00,WUHU216HW,2013-01-14 06:41:00,
2013-01-13 22:46:00,29.9,28.1,30.49,SSE,158,0.0,0.0,93,0.00,,,0.00,WUHU216HW,2013-01-14 06:46:00,
2013-01-13 22:51:00,29.7,27.9,30.49,SSE,158,0.0,0.0,93,0.00,,,0.00,WUHU216HW,2013-01-14 06:51:00,
2013-01-13 22:56:00,29.7,27.9,30.48,SSE,158,0.0,0.0,93,0.00,,,0.00,WUHU216HW,2013-01-14 06:56:00,
2013-01-13 23:01:00,29.6,27.8,30.48,SSE,158,0.0,0.0,93,0.00,,,0.00,WUHU216HW,2013-01-14 07:01:00,
2013-01-13 23:06:00,29.7,27.9,30.48,SSE,158,0.0,0.0,93,0.00,,,0.00,WUHU216HW,2013-01-14 07:06:00,
2013-01-13 23:11:00,29.7,27.9,30.48,SSE,158,0.0,0.0,93,0.00,,,0.00,WUHU216HW,2013-01-14 07:11:00,
2013-01-13 23:16:00,29.9,28.1,30.48,SSE,158,0.0,0.0,93,0.00,,,0.00,WUHU216HW,2013-01-14 07:16:00,
2013-01-13 23:21:00,29.7,27.9,30.48,SSE,158,0.0,0.0,93,0.00,,,0.00,WUHU216HW,2013-01-14 07:21:00,
2013-01-13 23:26:00,29.7,27.9,30.48,SSE,158,0.0,0.0,93,0.00,,,0.00,WUHU216HW,2013-01-14 07:26:00,
2013-01-13 23:31:00,29.6,27.8,30.48,SSE,158,0.0,0.0,93,0.00,,,0.00,WUHU216HW,2013-01-14 07:31:00,
2013-01-13 23:36:00,29.7,27.9,30.48,SSE,158,0.0,0.0,93,0.00,,,0.00,WUHU216HW,2013-01-14 07:36:00,
2013-01-13 23:41:00,29.9,28.1,30.48,SSE,158,0.0,0.0,93,0.00,,,0.00,WUHU216HW,2013-01-14 07:41:00,
2013-01-13 23:46:00,29.7,27.9,30.47,SSE,158,0.0,0.0,93,0.00,,,0.00,WUHU216HW,2013-01-14 07:46:00,
2013-01-13 23:51:00,29.7,27.9,30.47,SSE,158,0.0,0.0,93,0.00,,,0.00,WUHU216HW,2013-01-14 07:51:00,
2013-01-13 23:57:00,29.7,27.9,30.47,SSE,158,0.0,0.0,93,0.00,,,0.00,WUHU216HW,2013-01-14 07:57:00,